sensor_id;sensor_type;location;lat;lon;timestamp;pressure;altitude;pressure_sealevel;temperature;humidity
77893;BME280;67087;50.094;14.338;2023-04-08T00:01:48;98105.79;;;24.18;35.43
77893;BME280;67087;50.094;14.338;2023-04-08T00:04:14;98104.86;;;23.92;35.43
77893;BME280;67087;50.094;14.338;2023-04-08T00:06:39;98103.88;;;24.18;35.40
77893;BME280;67087;50.094;14.338;2023-04-08T00:09:04;98100.54;;;24.24;35.31
77893;BME280;67087;50.094;14.338;2023-04-08T00:11:29;98098.01;;;24.04;35.22
77893;BME280;67087;50.094;14.338;2023-04-08T00:13:54;98095.83;;;24.44;35.35
77893;BME280;67087;50.094;14.338;2023-04-08T00:16:20;98097.15;;;23.95;35.37
77893;BME280;67087;50.094;14.338;2023-04-08T00:18:45;98096.80;;;24.22;35.33
77893;BME280;67087;50.094;14.338;2023-04-08T00:21:10;98097.42;;;23.91;35.40
77893;BME280;67087;50.094;14.338;2023-04-08T00:23:35;98101.02;;;24.16;35.41
77893;BME280;67087;50.094;14.338;2023-04-08T00:26:00;98097.11;;;24.20;35.36
77893;BME280;67087;50.094;14.338;2023-04-08T00:28:26;98101.89;;;24.21;35.35
77893;BME280;67087;50.094;14.338;2023-04-08T00:30:52;98102.22;;;23.95;35.37
77893;BME280;67087;50.094;14.338;2023-04-08T00:33:16;98099.48;;;23.97;35.32
77893;BME280;67087;50.094;14.338;2023-04-08T00:35:41;98102.90;;;24.22;35.32
77893;BME280;67087;50.094;14.338;2023-04-08T00:38:06;98105.49;;;24.17;35.36
77893;BME280;67087;50.094;14.338;2023-04-08T00:40:31;98104.91;;;24.02;35.26
77893;BME280;67087;50.094;14.338;2023-04-08T00:42:56;98105.14;;;24.13;35.43
77893;BME280;67087;50.094;14.338;2023-04-08T00:45:21;98104.62;;;23.92;35.38
77893;BME280;67087;50.094;14.338;2023-04-08T00:47:47;98107.83;;;24.15;35.39
77893;BME280;67087;50.094;14.338;2023-04-08T00:50:12;98105.34;;;24.16;35.39
77893;BME280;67087;50.094;14.338;2023-04-08T00:52:37;98105.42;;;23.94;35.37
77893;BME280;67087;50.094;14.338;2023-04-08T00:55:03;98107.50;;;24.36;35.44
77893;BME280;67087;50.094;14.338;2023-04-08T00:57:27;98110.02;;;24.23;35.28
77893;BME280;67087;50.094;14.338;2023-04-08T00:59:53;98105.60;;;23.97;35.33
77893;BME280;67087;50.094;14.338;2023-04-08T01:02:24;98100.70;;;23.93;35.37
77893;BME280;67087;50.094;14.338;2023-04-08T01:04:49;98102.81;;;24.49;35.25
77893;BME280;67087;50.094;14.338;2023-04-08T01:07:14;98101.92;;;23.96;35.31
77893;BME280;67087;50.094;14.338;2023-04-08T01:09:37;98103.98;;;23.94;35.34
77893;BME280;67087;50.094;14.338;2023-04-08T01:12:00;98102.49;;;24.22;35.29
77893;BME280;67087;50.094;14.338;2023-04-08T01:14:25;98099.33;;;23.97;35.28
77893;BME280;67087;50.094;14.338;2023-04-08T01:16:49;98096.77;;;24.00;35.25
77893;BME280;67087;50.094;14.338;2023-04-08T01:19:19;98095.39;;;23.99;35.24
77893;BME280;67087;50.094;14.338;2023-04-08T01:21:39;98094.94;;;24.01;35.21
77893;BME280;67087;50.094;14.338;2023-04-08T01:24:10;98093.59;;;24.26;35.19
77893;BME280;67087;50.094;14.338;2023-04-08T01:26:30;98087.70;;;24.07;35.14
77893;BME280;67087;50.094;14.338;2023-04-08T01:28:57;98089.41;;;24.12;35.06
77893;BME280;67087;50.094;14.338;2023-04-08T01:31:21;98093.41;;;24.07;35.15
77893;BME280;67087;50.094;14.338;2023-04-08T01:33:45;98094.30;;;24.11;35.13
77893;BME280;67087;50.094;14.338;2023-04-08T01:36:10;98096.84;;;24.32;35.12
77893;BME280;67087;50.094;14.338;2023-04-08T01:38:37;98099.17;;;24.10;35.09
77893;BME280;67087;50.094;14.338;2023-04-08T01:41:01;98101.47;;;24.09;35.10
77893;BME280;67087;50.094;14.338;2023-04-08T01:43:26;98102.70;;;24.09;35.12
77893;BME280;67087;50.094;14.338;2023-04-08T01:45:52;98100.78;;;24.06;35.14
77893;BME280;67087;50.094;14.338;2023-04-08T01:48:16;98096.55;;;24.42;35.28
77893;BME280;67087;50.094;14.338;2023-04-08T01:50:42;98096.28;;;24.27;35.17
77893;BME280;67087;50.094;14.338;2023-04-08T01:53:07;98096.72;;;24.02;35.20
77893;BME280;67087;50.094;14.338;2023-04-08T01:55:33;98095.06;;;24.04;35.16
77893;BME280;67087;50.094;14.338;2023-04-08T01:57:59;98097.33;;;24.28;35.16
77893;BME280;67087;50.094;14.338;2023-04-08T02:00:24;98103.39;;;23.98;35.23
77893;BME280;67087;50.094;14.338;2023-04-08T02:02:47;98104.71;;;24.02;35.14
77893;BME280;67087;50.094;14.338;2023-04-08T02:05:12;98102.45;;;24.28;35.14
77893;BME280;67087;50.094;14.338;2023-04-08T02:07:37;98101.53;;;24.03;35.14
77893;BME280;67087;50.094;14.338;2023-04-08T02:10:03;98098.84;;;24.29;35.13
77893;BME280;67087;50.094;14.338;2023-04-08T02:12:27;98100.02;;;24.02;35.17
77893;BME280;67087;50.094;14.338;2023-04-08T02:14:53;98098.32;;;24.02;35.19
77893;BME280;67087;50.094;14.338;2023-04-08T02:17:22;98101.17;;;24.19;35.26
77893;BME280;67087;50.094;14.338;2023-04-08T02:19:46;98100.12;;;24.05;35.13
77893;BME280;67087;50.094;14.338;2023-04-08T02:22:11;98102.02;;;24.07;35.11
77893;BME280;67087;50.094;14.338;2023-04-08T02:24:34;98102.04;;;23.97;35.22
77893;BME280;67087;50.094;14.338;2023-04-08T02:26:59;98100.88;;;24.08;35.12
77893;BME280;67087;50.094;14.338;2023-04-08T02:29:25;98099.37;;;23.75;35.16
77893;BME280;67087;50.094;14.338;2023-04-08T02:31:50;98100.55;;;24.01;35.19
77893;BME280;67087;50.094;14.338;2023-04-08T02:34:15;98098.99;;;24.00;35.18
77893;BME280;67087;50.094;14.338;2023-04-08T02:36:39;98101.04;;;24.28;35.13
77893;BME280;67087;50.094;14.338;2023-04-08T02:39:04;98101.26;;;24.02;35.16
77893;BME280;67087;50.094;14.338;2023-04-08T02:41:30;98103.02;;;24.23;35.19
77893;BME280;67087;50.094;14.338;2023-04-08T02:43:55;98100.76;;;23.98;35.20
77893;BME280;67087;50.094;14.338;2023-04-08T02:46:20;98105.81;;;24.04;35.13
77893;BME280;67087;50.094;14.338;2023-04-08T02:48:45;98108.74;;;24.01;35.12
77893;BME280;67087;50.094;14.338;2023-04-08T02:51:10;98109.65;;;23.98;35.20
77893;BME280;67087;50.094;14.338;2023-04-08T02:53:35;98110.62;;;24.01;35.15
77893;BME280;67087;50.094;14.338;2023-04-08T02:56:00;98117.24;;;24.22;35.20
77893;BME280;67087;50.094;14.338;2023-04-08T02:58:26;98119.14;;;24.01;35.17
77893;BME280;67087;50.094;14.338;2023-04-08T03:00:51;98118.04;;;24.20;35.23
77893;BME280;67087;50.094;14.338;2023-04-08T03:03:16;98114.05;;;23.96;35.23
77893;BME280;67087;50.094;14.338;2023-04-08T03:05:41;98119.08;;;24.22;35.20
77893;BME280;67087;50.094;14.338;2023-04-08T03:08:06;98119.54;;;23.96;35.24
77893;BME280;67087;50.094;14.338;2023-04-08T03:10:31;98120.55;;;24.22;35.21
77893;BME280;67087;50.094;14.338;2023-04-08T03:12:57;98119.34;;;24.20;35.23
77893;BME280;67087;50.094;14.338;2023-04-08T03:15:22;98117.19;;;23.96;35.23
77893;BME280;67087;50.094;14.338;2023-04-08T03:17:47;98118.80;;;23.88;35.34
77893;BME280;67087;50.094;14.338;2023-04-08T03:20:12;98119.81;;;24.26;35.15
77893;BME280;67087;50.094;14.338;2023-04-08T03:22:37;98118.76;;;23.93;35.27
77893;BME280;67087;50.094;14.338;2023-04-08T03:25:03;98116.09;;;24.22;35.20
77893;BME280;67087;50.094;14.338;2023-04-08T03:27:28;98115.42;;;24.15;35.28
77893;BME280;67087;50.094;14.338;2023-04-08T03:29:53;98114.31;;;23.95;35.23
77893;BME280;67087;50.094;14.338;2023-04-08T03:32:19;98116.11;;;23.95;35.23
77893;BME280;67087;50.094;14.338;2023-04-08T03:34:43;98117.71;;;24.18;35.25
77893;BME280;67087;50.094;14.338;2023-04-08T03:37:08;98118.08;;;23.88;35.33
77893;BME280;67087;50.094;14.338;2023-04-08T03:39:34;98119.30;;;23.93;35.26
77893;BME280;67087;50.094;14.338;2023-04-08T03:41:59;98119.93;;;24.44;35.21
77893;BME280;67087;50.094;14.338;2023-04-08T03:44:24;98119.00;;;24.15;35.29
77893;BME280;67087;50.094;14.338;2023-04-08T03:46:49;98120.72;;;24.00;35.16
77893;BME280;67087;50.094;14.338;2023-04-08T03:49:14;98120.76;;;23.98;35.18
77893;BME280;67087;50.094;14.338;2023-04-08T03:51:39;98121.66;;;24.21;35.19
77893;BME280;67087;50.094;14.338;2023-04-08T03:54:04;98119.87;;;23.89;35.31
77893;BME280;67087;50.094;14.338;2023-04-08T03:56:30;98124.45;;;23.96;35.17
77893;BME280;67087;50.094;14.338;2023-04-08T03:58:55;98127.07;;;24.15;35.28
77893;BME280;67087;50.094;14.338;2023-04-08T04:01:20;98129.24;;;24.14;35.27
77893;BME280;67087;50.094;14.338;2023-04-08T04:03:45;98130.47;;;24.17;35.25
77893;BME280;67087;50.094;14.338;2023-04-08T04:06:10;98133.45;;;23.94;35.24
77893;BME280;67087;50.094;14.338;2023-04-08T04:08:35;98138.68;;;23.93;35.27
77893;BME280;67087;50.094;14.338;2023-04-08T04:11:01;98141.10;;;24.16;35.25
77893;BME280;67087;50.094;14.338;2023-04-08T04:13:26;98141.49;;;24.16;35.27
77893;BME280;67087;50.094;14.338;2023-04-08T04:15:51;98143.36;;;24.12;35.32
77893;BME280;67087;50.094;14.338;2023-04-08T04:18:16;98145.35;;;23.88;35.32
77893;BME280;67087;50.094;14.338;2023-04-08T04:20:42;98145.62;;;24.00;35.16
77893;BME280;67087;50.094;14.338;2023-04-08T04:23:07;98148.41;;;24.17;35.27
77893;BME280;67087;50.094;14.338;2023-04-08T04:25:32;98152.20;;;23.86;35.36
77893;BME280;67087;50.094;14.338;2023-04-08T04:27:57;98155.42;;;24.05;35.41
77893;BME280;67087;50.094;14.338;2023-04-08T04:30:22;98156.43;;;23.81;35.44
77893;BME280;67087;50.094;14.338;2023-04-08T04:32:47;98154.73;;;23.84;35.39
77893;BME280;67087;50.094;14.338;2023-04-08T04:35:12;98157.98;;;23.95;35.55
77893;BME280;67087;50.094;14.338;2023-04-08T04:37:38;98160.18;;;23.76;35.49
77893;BME280;67087;50.094;14.338;2023-04-08T04:40:03;98162.35;;;23.94;35.58
77893;BME280;67087;50.094;14.338;2023-04-08T04:42:28;98165.67;;;23.75;35.50
77893;BME280;67087;50.094;14.338;2023-04-08T04:44:53;98167.47;;;24.06;35.41
77893;BME280;67087;50.094;14.338;2023-04-08T04:47:19;98168.43;;;23.97;35.54
77893;BME280;67087;50.094;14.338;2023-04-08T04:49:43;98170.99;;;23.98;35.53
77893;BME280;67087;50.094;14.338;2023-04-08T04:52:09;98173.30;;;23.83;35.40
77893;BME280;67087;50.094;14.338;2023-04-08T04:54:34;98176.76;;;24.22;35.52
77893;BME280;67087;50.094;14.338;2023-04-08T04:56:59;98178.80;;;23.95;35.55
77893;BME280;67087;50.094;14.338;2023-04-08T04:59:24;98179.47;;;23.73;35.54
77893;BME280;67087;50.094;14.338;2023-04-08T05:01:49;98179.20;;;24.00;35.50
77893;BME280;67087;50.094;14.338;2023-04-08T05:04:14;98183.72;;;23.99;35.51
77893;BME280;67087;50.094;14.338;2023-04-08T05:06:40;98182.18;;;24.08;35.41
77893;BME280;67087;50.094;14.338;2023-04-08T05:09:05;98184.12;;;24.06;35.43
77893;BME280;67087;50.094;14.338;2023-04-08T05:11:30;98183.54;;;23.76;35.50
77893;BME280;67087;50.094;14.338;2023-04-08T05:13:55;98183.06;;;24.03;35.47
77893;BME280;67087;50.094;14.338;2023-04-08T05:16:20;98183.65;;;23.78;35.47
77893;BME280;67087;50.094;14.338;2023-04-08T05:18:45;98187.00;;;24.00;35.52
77893;BME280;67087;50.094;14.338;2023-04-08T05:21:11;98191.83;;;23.86;35.39
77893;BME280;67087;50.094;14.338;2023-04-08T05:23:36;98193.64;;;24.23;35.52
77893;BME280;67087;50.094;14.338;2023-04-08T05:26:01;98197.12;;;23.75;35.51
77893;BME280;67087;50.094;14.338;2023-04-08T05:28:26;98195.47;;;24.28;35.47
77893;BME280;67087;50.094;14.338;2023-04-08T05:30:52;98198.79;;;24.01;35.51
77893;BME280;67087;50.094;14.338;2023-04-08T05:33:17;98200.09;;;24.09;35.39
77893;BME280;67087;50.094;14.338;2023-04-08T05:35:42;98201.56;;;24.01;35.49
77893;BME280;67087;50.094;14.338;2023-04-08T05:38:07;98204.05;;;24.28;35.47
77893;BME280;67087;50.094;14.338;2023-04-08T05:40:32;98205.10;;;24.06;35.43
77893;BME280;67087;50.094;14.338;2023-04-08T05:42:57;98206.63;;;23.94;35.59
77893;BME280;67087;50.094;14.338;2023-04-08T05:45:22;98207.67;;;23.37;35.41
77893;BME280;67087;50.094;14.338;2023-04-08T05:47:48;98208.70;;;23.97;35.56
77893;BME280;67087;50.094;14.338;2023-04-08T05:50:13;98208.64;;;23.99;35.53
77893;BME280;67087;50.094;14.338;2023-04-08T05:52:41;98211.68;;;24.04;35.46
77893;BME280;67087;50.094;14.338;2023-04-08T05:55:05;98209.87;;;23.78;35.43
77893;BME280;67087;50.094;14.338;2023-04-08T05:57:28;98215.90;;;23.77;35.51
77893;BME280;67087;50.094;14.338;2023-04-08T05:59:53;98215.80;;;24.21;35.55
77893;BME280;67087;50.094;14.338;2023-04-08T06:02:19;98216.32;;;23.79;35.46
77893;BME280;67087;50.094;14.338;2023-04-08T06:04:44;98219.76;;;23.75;35.51
77893;BME280;67087;50.094;14.338;2023-04-08T06:07:09;98221.39;;;24.03;35.46
77893;BME280;67087;50.094;14.338;2023-04-08T06:09:34;98223.45;;;23.93;35.58
77893;BME280;67087;50.094;14.338;2023-04-08T06:11:59;98221.52;;;24.02;35.46
77893;BME280;67087;50.094;14.338;2023-04-08T06:14:24;98221.84;;;23.86;35.36
77893;BME280;67087;50.094;14.338;2023-04-08T06:16:50;98220.70;;;24.02;35.46
77893;BME280;67087;50.094;14.338;2023-04-08T06:19:15;98219.28;;;24.03;35.45
77893;BME280;67087;50.094;14.338;2023-04-08T06:21:40;98224.47;;;23.97;35.51
77893;BME280;67087;50.094;14.338;2023-04-08T06:24:05;98227.24;;;24.03;35.47
77893;BME280;67087;50.094;14.338;2023-04-08T06:26:30;98229.84;;;23.77;35.50
77893;BME280;67087;50.094;14.338;2023-04-08T06:28:55;98231.61;;;23.69;35.58
77893;BME280;67087;50.094;14.338;2023-04-08T06:31:20;98230.79;;;23.82;35.42
77893;BME280;67087;50.094;14.338;2023-04-08T06:33:46;98231.73;;;23.74;35.53
77893;BME280;67087;50.094;14.338;2023-04-08T06:36:11;98232.04;;;23.91;35.62
77893;BME280;67087;50.094;14.338;2023-04-08T06:38:36;98232.39;;;23.95;35.51
77893;BME280;67087;50.094;14.338;2023-04-08T06:41:02;98234.77;;;23.80;35.43
77893;BME280;67087;50.094;14.338;2023-04-08T06:43:26;98236.28;;;24.12;35.35
77893;BME280;67087;50.094;14.338;2023-04-08T06:45:52;98237.71;;;23.84;35.39
77893;BME280;67087;50.094;14.338;2023-04-08T06:48:17;98240.47;;;24.06;35.41
77893;BME280;67087;50.094;14.338;2023-04-08T06:50:42;98245.81;;;23.86;35.38
77893;BME280;67087;50.094;14.338;2023-04-08T06:53:07;98251.15;;;23.91;35.32
77893;BME280;67087;50.094;14.338;2023-04-08T06:55:32;98255.36;;;23.93;35.28
77893;BME280;67087;50.094;14.338;2023-04-08T06:57:57;98258.01;;;24.15;35.29
77893;BME280;67087;50.094;14.338;2023-04-08T07:00:23;98256.97;;;23.88;35.32
77893;BME280;67087;50.094;14.338;2023-04-08T07:02:48;98259.57;;;23.89;35.32
77893;BME280;67087;50.094;14.338;2023-04-08T07:05:13;98259.83;;;23.92;35.27
77893;BME280;67087;50.094;14.338;2023-04-08T07:07:38;98265.44;;;24.20;35.23
77893;BME280;67087;50.094;14.338;2023-04-08T07:10:04;98268.49;;;23.97;35.21
77893;BME280;67087;50.094;14.338;2023-04-08T07:12:28;98274.14;;;23.99;35.19
77893;BME280;67087;50.094;14.338;2023-04-08T07:14:53;98276.64;;;23.93;35.27
77893;BME280;67087;50.094;14.338;2023-04-08T07:17:19;98277.43;;;23.93;35.29
77893;BME280;67087;50.094;14.338;2023-04-08T07:19:44;98277.18;;;23.83;35.38
77893;BME280;67087;50.094;14.338;2023-04-08T07:22:09;98280.85;;;24.17;35.26
77893;BME280;67087;50.094;14.338;2023-04-08T07:24:34;98284.85;;;23.93;35.26
77893;BME280;67087;50.094;14.338;2023-04-08T07:26:59;98286.78;;;24.20;35.24
77893;BME280;67087;50.094;14.338;2023-04-08T07:29:24;98290.67;;;23.90;35.30
77893;BME280;67087;50.094;14.338;2023-04-08T07:31:50;98294.51;;;23.92;35.28
77893;BME280;67087;50.094;14.338;2023-04-08T07:34:15;98295.83;;;24.16;35.27
77893;BME280;67087;50.094;14.338;2023-04-08T07:36:40;98298.56;;;23.96;35.25
77893;BME280;67087;50.094;14.338;2023-04-08T07:39:05;98300.72;;;23.96;35.24
77893;BME280;67087;50.094;14.338;2023-04-08T07:41:30;98297.72;;;24.18;35.28
77893;BME280;67087;50.094;14.338;2023-04-08T07:43:55;98301.63;;;24.02;35.16
77893;BME280;67087;50.094;14.338;2023-04-08T07:46:21;98305.77;;;23.97;35.22
77893;BME280;67087;50.094;14.338;2023-04-08T07:48:46;98308.24;;;24.03;35.17
77893;BME280;67087;50.094;14.338;2023-04-08T07:51:11;98311.10;;;24.33;35.06
77893;BME280;67087;50.094;14.338;2023-04-08T07:53:36;98315.43;;;24.06;35.10
77893;BME280;67087;50.094;14.338;2023-04-08T07:56:02;98318.18;;;23.96;35.23
77893;BME280;67087;50.094;14.338;2023-04-08T07:58:26;98321.65;;;24.06;35.10
77893;BME280;67087;50.094;14.338;2023-04-08T08:00:52;98321.06;;;24.16;34.98
77893;BME280;67087;50.094;14.338;2023-04-08T08:03:17;98321.58;;;24.06;35.11
77893;BME280;67087;50.094;14.338;2023-04-08T08:05:42;98325.20;;;24.03;35.16
77893;BME280;67087;50.094;14.338;2023-04-08T08:08:07;98326.95;;;24.03;35.15
77893;BME280;67087;50.094;14.338;2023-04-08T08:10:32;98328.55;;;24.29;35.16
77893;BME280;67087;50.094;14.338;2023-04-08T08:12:57;98333.11;;;24.39;34.99
77893;BME280;67087;50.094;14.338;2023-04-08T08:15:22;98339.69;;;23.96;35.24
77893;BME280;67087;50.094;14.338;2023-04-08T08:17:48;98343.43;;;24.03;35.16
77893;BME280;67087;50.094;14.338;2023-04-08T08:20:13;98348.57;;;24.15;35.05
77893;BME280;67087;50.094;14.338;2023-04-08T08:22:38;98348.33;;;24.04;35.16
77893;BME280;67087;50.094;14.338;2023-04-08T08:25:04;98351.12;;;24.10;35.08
77893;BME280;67087;50.094;14.338;2023-04-08T08:27:28;98352.53;;;24.04;35.17
77893;BME280;67087;50.094;14.338;2023-04-08T08:29:53;98350.95;;;24.00;35.20
77893;BME280;67087;50.094;14.338;2023-04-08T08:32:19;98355.08;;;24.05;35.15
77893;BME280;67087;50.094;14.338;2023-04-08T08:34:44;98355.24;;;24.05;35.14
77893;BME280;67087;50.094;14.338;2023-04-08T08:37:09;98359.28;;;24.10;35.11
77893;BME280;67087;50.094;14.338;2023-04-08T08:39:34;98362.51;;;24.01;35.20
77893;BME280;67087;50.094;14.338;2023-04-08T08:41:59;98365.19;;;24.01;35.19
77893;BME280;67087;50.094;14.338;2023-04-08T08:44:24;98368.10;;;24.01;35.19
77893;BME280;67087;50.094;14.338;2023-04-08T08:46:50;98372.25;;;23.99;35.23
77893;BME280;67087;50.094;14.338;2023-04-08T08:49:15;98372.88;;;24.00;35.24
77893;BME280;67087;50.094;14.338;2023-04-08T08:51:40;98377.90;;;24.02;35.21
77893;BME280;67087;50.094;14.338;2023-04-08T08:54:05;98379.90;;;23.98;35.25
77893;BME280;67087;50.094;14.338;2023-04-08T08:56:32;98382.94;;;24.06;35.14
77893;BME280;67087;50.094;14.338;2023-04-08T08:58:55;98384.53;;;23.99;35.24
77893;BME280;67087;50.094;14.338;2023-04-08T09:01:30;98388.56;;;23.84;35.14
77893;BME280;67087;50.094;14.338;2023-04-08T09:03:46;98397.30;;;24.27;35.19
77893;BME280;67087;50.094;14.338;2023-04-08T09:06:11;98396.38;;;24.02;35.20
77893;BME280;67087;50.094;14.338;2023-04-08T09:08:36;98396.78;;;23.94;35.31
77893;BME280;67087;50.094;14.338;2023-04-08T09:11:11;98402.55;;;23.99;35.24
77893;BME280;67087;50.094;14.338;2023-04-08T09:13:33;98405.83;;;23.91;35.34
77893;BME280;67087;50.094;14.338;2023-04-08T09:16:01;98406.81;;;23.93;35.33
77893;BME280;67087;50.094;14.338;2023-04-08T09:18:21;98405.08;;;24.19;35.25
77893;BME280;67087;50.094;14.338;2023-04-08T09:20:50;98410.67;;;23.98;35.25
77893;BME280;67087;50.094;14.338;2023-04-08T09:23:07;98415.32;;;24.21;35.28
77893;BME280;67087;50.094;14.338;2023-04-08T09:25:33;98419.40;;;23.95;35.25
77893;BME280;67087;50.094;14.338;2023-04-08T09:27:58;98421.43;;;24.00;35.23
77893;BME280;67087;50.094;14.338;2023-04-08T09:30:24;98424.71;;;23.57;35.18
77893;BME280;67087;50.094;14.338;2023-04-08T09:32:49;98425.32;;;23.97;35.29
77893;BME280;67087;50.094;14.338;2023-04-08T09:35:13;98423.19;;;24.25;35.22
77893;BME280;67087;50.094;14.338;2023-04-08T09:37:38;98423.13;;;23.90;35.37
77893;BME280;67087;50.094;14.338;2023-04-08T09:40:04;98425.24;;;24.16;35.35
77893;BME280;67087;50.094;14.338;2023-04-08T09:42:29;98424.02;;;23.99;35.25
77893;BME280;67087;50.094;14.338;2023-04-08T09:44:54;98425.88;;;23.84;35.43
77893;BME280;67087;50.094;14.338;2023-04-08T09:47:22;98426.90;;;24.19;35.31
77893;BME280;67087;50.094;14.338;2023-04-08T09:49:48;98429.80;;;24.19;35.30
77893;BME280;67087;50.094;14.338;2023-04-08T09:52:12;98428.73;;;24.30;35.16
77893;BME280;67087;50.094;14.338;2023-04-08T09:54:42;98427.67;;;24.24;35.23
77893;BME280;67087;50.094;14.338;2023-04-08T09:57:03;98424.16;;;24.25;35.23
77893;BME280;67087;50.094;14.338;2023-04-08T09:59:26;98425.80;;;23.95;35.31
77893;BME280;67087;50.094;14.338;2023-04-08T10:01:52;98425.27;;;24.05;35.18
77893;BME280;67087;50.094;14.338;2023-04-08T10:04:19;98427.16;;;24.12;35.06
77893;BME280;67087;50.094;14.338;2023-04-08T10:06:41;98428.16;;;24.04;35.17
77893;BME280;67087;50.094;14.338;2023-04-08T10:09:06;98429.36;;;24.27;35.18
77893;BME280;67087;50.094;14.338;2023-04-08T10:11:31;98428.46;;;24.07;35.13
77893;BME280;67087;50.094;14.338;2023-04-08T10:13:56;98430.53;;;24.08;35.16
77893;BME280;67087;50.094;14.338;2023-04-08T10:16:22;98432.23;;;24.04;35.22
77893;BME280;67087;50.094;14.338;2023-04-08T10:18:46;98433.42;;;24.25;35.25
77893;BME280;67087;50.094;14.338;2023-04-08T10:23:54;98432.84;;;24.08;35.17
77893;BME280;67087;50.094;14.338;2023-04-08T10:26:07;98432.96;;;24.13;35.10
77893;BME280;67087;50.094;14.338;2023-04-08T10:28:27;98434.81;;;24.12;35.11
77893;BME280;67087;50.094;14.338;2023-04-08T10:30:53;98432.97;;;24.04;35.22
77893;BME280;67087;50.094;14.338;2023-04-08T10:33:21;98429.42;;;24.02;35.24
77893;BME280;67087;50.094;14.338;2023-04-08T10:35:46;98436.21;;;24.07;35.19
77893;BME280;67087;50.094;14.338;2023-04-08T10:38:08;98439.74;;;24.07;35.19
77893;BME280;67087;50.094;14.338;2023-04-08T10:40:35;98442.15;;;24.32;35.20
77893;BME280;67087;50.094;14.338;2023-04-08T10:42:58;98440.09;;;24.05;35.22
77893;BME280;67087;50.094;14.338;2023-04-08T10:45:23;98442.94;;;24.03;35.29
77893;BME280;67087;50.094;14.338;2023-04-08T10:47:48;98443.09;;;23.97;35.36
77893;BME280;67087;50.094;14.338;2023-04-08T10:50:15;98446.72;;;24.03;35.27
77893;BME280;67087;50.094;14.338;2023-04-08T10:52:47;98446.88;;;24.06;35.24
77893;BME280;67087;50.094;14.338;2023-04-08T10:55:04;98447.39;;;23.93;35.37
77893;BME280;67087;50.094;14.338;2023-04-08T10:57:29;98446.60;;;24.03;35.29
77893;BME280;67087;50.094;14.338;2023-04-08T10:59:54;98445.42;;;24.07;35.24
77893;BME280;67087;50.094;14.338;2023-04-08T11:02:20;98448.09;;;24.02;35.30
77893;BME280;67087;50.094;14.338;2023-04-08T11:04:44;98449.70;;;24.20;35.41
77893;BME280;67087;50.094;14.338;2023-04-08T11:07:09;98450.22;;;24.28;35.26
77893;BME280;67087;50.094;14.338;2023-04-08T11:09:35;98448.64;;;24.24;35.31
77893;BME280;67087;50.094;14.338;2023-04-08T11:12:00;98448.94;;;24.50;35.29
77893;BME280;67087;50.094;14.338;2023-04-08T11:14:25;98451.61;;;23.97;35.36
77893;BME280;67087;50.094;14.338;2023-04-08T11:16:50;98455.82;;;23.91;35.42
77893;BME280;67087;50.094;14.338;2023-04-08T11:19:15;98453.27;;;24.12;35.47
77893;BME280;67087;50.094;14.338;2023-04-08T11:21:41;98454.81;;;24.49;35.29
77893;BME280;67087;50.094;14.338;2023-04-08T11:24:08;98456.73;;;24.07;35.51
77893;BME280;67087;50.094;14.338;2023-04-08T11:26:31;98458.36;;;24.22;35.32
77893;BME280;67087;50.094;14.338;2023-04-08T11:28:56;98460.25;;;23.84;35.50
77893;BME280;67087;50.094;14.338;2023-04-08T11:31:21;98460.69;;;23.94;35.38
77893;BME280;67087;50.094;14.338;2023-04-08T11:33:47;98460.62;;;23.90;35.43
77893;BME280;67087;50.094;14.338;2023-04-08T11:36:12;98462.83;;;24.09;35.50
77893;BME280;67087;50.094;14.338;2023-04-08T11:38:38;98464.28;;;24.39;35.40
77893;BME280;67087;50.094;14.338;2023-04-08T11:41:02;98467.43;;;24.03;35.26
77893;BME280;67087;50.094;14.338;2023-04-08T11:43:27;98470.63;;;23.86;35.47
77893;BME280;67087;50.094;14.338;2023-04-08T11:45:52;98466.35;;;23.86;35.48
77893;BME280;67087;50.094;14.338;2023-04-08T11:48:17;98468.40;;;24.12;35.44
77893;BME280;67087;50.094;14.338;2023-04-08T11:50:43;98469.10;;;24.26;35.28
77893;BME280;67087;50.094;14.338;2023-04-08T11:53:16;98469.06;;;24.11;35.47
77893;BME280;67087;50.094;14.338;2023-04-08T11:55:33;98471.76;;;23.97;35.36
77893;BME280;67087;50.094;14.338;2023-04-08T11:58:02;98472.01;;;24.13;35.43
77893;BME280;67087;50.094;14.338;2023-04-08T12:00:23;98468.78;;;23.92;35.40
77893;BME280;67087;50.094;14.338;2023-04-08T12:02:49;98467.80;;;24.12;35.45
77893;BME280;67087;50.094;14.338;2023-04-08T12:05:13;98467.99;;;24.31;35.51
77893;BME280;67087;50.094;14.338;2023-04-08T12:07:39;98466.63;;;23.82;35.52
77893;BME280;67087;50.094;14.338;2023-04-08T12:10:05;98467.38;;;24.11;35.47
77893;BME280;67087;50.094;14.338;2023-04-08T12:12:29;98465.29;;;23.89;35.39
77893;BME280;67087;50.094;14.338;2023-04-08T12:14:54;98463.76;;;24.04;35.55
77893;BME280;67087;50.094;14.338;2023-04-08T12:17:20;98469.84;;;24.23;35.28
77893;BME280;67087;50.094;14.338;2023-04-08T12:19:44;98471.60;;;23.96;35.33
77893;BME280;67087;50.094;14.338;2023-04-08T12:22:10;98470.94;;;24.16;35.37
77893;BME280;67087;50.094;14.338;2023-04-08T12:24:35;98472.30;;;23.76;35.59
77893;BME280;67087;50.094;14.338;2023-04-08T12:27:00;98472.77;;;24.14;35.41
77893;BME280;67087;50.094;14.338;2023-04-08T12:29:25;98473.14;;;23.96;35.35
77893;BME280;67087;50.094;14.338;2023-04-08T12:31:50;98475.84;;;24.13;35.42
77893;BME280;67087;50.094;14.338;2023-04-08T12:34:15;98476.33;;;24.15;35.41
77893;BME280;67087;50.094;14.338;2023-04-08T12:36:41;98477.79;;;23.91;35.41
77893;BME280;67087;50.094;14.338;2023-04-08T12:39:06;98481.66;;;23.92;35.40
77893;BME280;67087;50.094;14.338;2023-04-08T12:41:31;98484.88;;;23.86;35.48